Time;durP1;ratioP1;P1;durP2;ratioP2;P2;SDS_P1;SDS_P2;PMS_P1;PMS_P2;Temp;Humidity;BMP_temperature;BMP_pressure;BME280_temperature;BME280_humidity;BME280_pressure;Samples;Min_cycle;Max_cycle;Signal;HPM_P1;HPM_P2
2023/01/29 00:01:50;;;;;;;33.77;26.53;;;;;;;-1.67;100.00;102925.97;5101318;28;20028;-86
2023/01/29 00:04:15;;;;;;;32.03;25.07;;;;;;;-1.65;100.00;102921.41;5102263;28;20141;-85
2023/01/29 00:06:41;;;;;;;30.83;25.13;;;;;;;-1.63;100.00;102916.88;5101410;28;20020;-85
2023/01/29 00:09:06;;;;;;;29.87;24.47;;;;;;;-1.60;100.00;102907.88;5102174;28;20446;-85
2023/01/29 00:11:32;;;;;;;30.93;24.10;;;;;;;-1.60;100.00;102906.06;5095175;28;20083;-80
2023/01/29 00:13:57;;;;;;;30.17;24.93;;;;;;;-1.60;100.00;102902.56;5096142;28;20391;-80
2023/01/29 00:16:23;;;;;;;28.10;23.63;;;;;;;-1.61;100.00;102906.16;5094482;28;20036;-80
2023/01/29 00:18:48;;;;;;;29.17;24.23;;;;;;;-1.60;100.00;102908.72;5097288;28;20602;-80
2023/01/29 00:21:17;;;;;;;28.43;23.07;;;;;;;-1.60;100.00;102902.56;5097084;28;20484;-80
2023/01/29 00:23:42;;;;;;;29.50;23.57;;;;;;;-1.61;100.00;102893.72;5095992;28;20429;-80
2023/01/29 00:26:08;;;;;;;32.40;25.97;;;;;;;-1.57;100.00;102895.28;5095912;28;20320;-80
2023/01/29 00:28:34;;;;;;;35.10;27.47;;;;;;;-1.57;100.00;102894.44;5095759;28;20031;-80
2023/01/29 00:31:10;;;;;;;35.50;26.40;;;;;;;-1.64;100.00;102888.56;5093758;28;20353;-80
2023/01/29 00:33:36;;;;;;;36.07;27.57;;;;;;;-1.59;100.00;102891.84;5102682;28;20101;-85
2023/01/29 00:36:06;;;;;;;32.10;25.00;;;;;;;-1.57;100.00;102894.44;5112170;28;20285;-85
2023/01/29 00:38:33;;;;;;;30.93;24.33;;;;;;;-1.59;100.00;102890.97;5109676;28;20027;-85
2023/01/29 00:46:42;;;;;;;29.27;22.97;;;;;;;-1.49;100.00;102867.44;5112873;28;20357;-86
2023/01/29 00:49:08;;;;;;;26.53;22.00;;;;;;;-1.48;100.00;102866.47;5112318;28;20293;-86
2023/01/29 00:51:35;;;;;;;28.03;23.07;;;;;;;-1.51;100.00;102861.31;5103514;28;20047;-86
2023/01/29 00:54:01;;;;;;;27.90;22.30;;;;;;;-1.55;100.00;102856.19;5104500;28;20032;-85
2023/01/29 00:56:28;;;;;;;28.13;22.83;;;;;;;-1.60;100.00;102847.59;5110968;28;20873;-85
2023/01/29 00:58:54;;;;;;;27.90;23.63;;;;;;;-1.70;100.00;102857.00;5102494;28;20122;-86
2023/01/29 01:03:04;;;;;;;28.47;22.80;;;;;;;-1.64;100.00;102853.16;5110962;28;20297;-85
2023/01/29 01:04:08;;;;;;;35.47;26.83;;;;;;;-1.75;100.00;102845.78;5110796;28;20354;-85
2023/01/29 01:06:36;;;;;;;35.17;26.83;;;;;;;-1.75;100.00;102848.44;5109398;28;20372;-85
2023/01/29 01:11:46;;;;;;;38.72;28.58;;;;;;;-1.78;100.00;102857.41;5106332;28;20283;-85
2023/01/29 01:14:11;;;;;;;35.80;27.27;;;;;;;-1.84;100.00;102855.06;5110474;28;20027;-85
2023/01/29 01:16:37;;;;;;;32.27;25.27;;;;;;;-1.85;100.00;102863.13;5088472;28;20066;-85
2023/01/29 01:19:03;;;;;;;29.17;23.20;;;;;;;-1.83;100.00;102859.44;5103807;28;20032;-85
2023/01/29 01:21:28;;;;;;;28.63;22.63;;;;;;;-1.83;100.00;102850.63;5100763;28;20032;-85
2023/01/29 01:23:54;;;;;;;29.27;23.40;;;;;;;-1.85;100.00;102847.19;5111775;28;20346;-86
2023/01/29 01:26:19;;;;;;;29.37;24.13;;;;;;;-1.84;100.00;102848.91;5103153;28;20482;-85
2023/01/29 01:28:44;;;;;;;27.83;22.60;;;;;;;-1.83;100.00;102855.94;5094630;28;20475;-80
2023/01/29 01:31:12;;;;;;;29.43;23.80;;;;;;;-1.84;100.00;102860.38;5081086;28;20036;-80
2023/01/29 01:33:38;;;;;;;29.33;23.10;;;;;;;-1.81;100.00;102852.28;5098474;28;20498;-80
2023/01/29 01:36:08;;;;;;;28.20;22.57;;;;;;;-1.81;100.00;102864.69;5097390;28;20280;-80
2023/01/29 01:38:35;;;;;;;27.87;22.93;;;;;;;-1.80;100.00;102858.44;5095351;28;20297;-80
2023/01/29 01:41:01;;;;;;;28.23;22.93;;;;;;;-1.79;100.00;102861.00;5098781;28;21374;-80
2023/01/29 01:43:26;;;;;;;27.90;22.20;;;;;;;-1.75;100.00;102857.25;5095422;28;20298;-80
2023/01/29 01:45:52;;;;;;;28.30;23.40;;;;;;;-1.76;100.00;102854.69;5098594;28;20117;-80
2023/01/29 01:48:25;;;;;;;27.53;22.20;;;;;;;-1.76;100.00;102852.00;5097953;28;20051;-80
2023/01/29 01:51:02;;;;;;;29.27;23.83;;;;;;;-1.78;100.00;102853.88;5098026;28;20289;-80
2023/01/29 01:53:38;;;;;;;29.03;23.03;;;;;;;-1.79;100.00;102853.03;5099082;28;20281;-80
2023/01/29 01:56:07;;;;;;;28.77;22.93;;;;;;;-1.81;100.00;102857.59;5093122;28;20290;-80
2023/01/29 01:58:35;;;;;;;30.17;23.57;;;;;;;-1.79;100.00;102862.81;5098004;28;20657;-80
2023/01/29 02:01:03;;;;;;;30.73;23.97;;;;;;;-1.81;100.00;102854.06;5097367;28;20329;-80
2023/01/29 02:11:52;;;;;;;30.13;24.27;;;;;;;-1.82;100.00;102863.84;5111136;28;20810;-85
2023/01/29 02:14:18;;;;;;;28.40;23.60;;;;;;;-1.81;100.00;102862.91;5109205;28;20384;-85
2023/01/29 02:16:43;;;;;;;30.80;24.17;;;;;;;-1.78;100.00;102872.47;5100513;28;20031;-85
2023/01/29 02:19:21;;;;;;;29.03;24.17;;;;;;;-1.76;100.00;102873.28;5105851;28;20031;-85
2023/01/29 02:22:05;;;;;;;29.30;23.83;;;;;;;-1.74;100.00;102874.91;5108476;28;20031;-85
2023/01/29 02:24:34;;;;;;;30.75;24.38;;;;;;;-1.72;100.00;102877.50;5101353;28;20289;-86
2023/01/29 02:27:08;;;;;;;29.13;23.53;;;;;;;-1.73;100.00;102881.97;5108181;28;20148;-85
2023/01/29 02:29:52;;;;;;;28.85;23.55;;;;;;;-1.71;100.00;102884.53;5107065;28;21186;-85
2023/01/29 02:32:17;;;;;;;29.17;24.17;;;;;;;-1.68;100.00;102880.84;5100336;28;20035;-85
2023/01/29 02:38:14;;;;;;;29.43;24.37;;;;;;;-1.61;100.00;102872.44;5101429;28;20093;-80
2023/01/29 02:40:45;;;;;;;28.70;23.30;;;;;;;-1.62;100.00;102869.88;5066769;28;20290;-80
2023/01/29 02:43:44;;;;;;;28.97;23.77;;;;;;;-1.57;100.00;102857.22;5093065;28;20290;-80
2023/01/29 02:46:34;;;;;;;30.73;24.13;;;;;;;-1.61;100.00;102867.13;5100044;28;20273;-80
2023/01/29 02:49:15;;;;;;;30.50;24.73;;;;;;;-1.59;100.00;102864.38;5093324;28;20431;-80
2023/01/29 02:51:59;;;;;;;29.73;23.93;;;;;;;-1.55;100.00;102865.94;5098051;28;20668;-80
2023/01/29 02:54:42;;;;;;;29.90;24.63;;;;;;;-1.55;100.00;102868.59;5097600;28;20281;-79
2023/01/29 02:57:31;;;;;;;29.70;24.23;;;;;;;-1.53;100.00;102864.91;5097203;28;20299;-80
2023/01/29 03:00:09;;;;;;;31.03;25.13;;;;;;;-1.53;100.00;102858.75;5098462;28;20298;-80
2023/01/29 03:02:47;;;;;;;30.27;24.93;;;;;;;-1.51;100.00;102861.31;5097088;28;20285;-80
2023/01/29 03:05:20;;;;;;;32.57;24.60;;;;;;;-1.49;100.00;102859.47;5098366;28;20375;-80
2023/01/29 03:07:52;;;;;;;29.80;24.50;;;;;;;-1.48;100.00;102861.16;5098409;28;20338;-80
2023/01/29 03:10:26;;;;;;;30.83;24.43;;;;;;;-1.47;100.00;102853.13;5095711;28;20312;-80
2023/01/29 03:13:21;;;;;;;29.38;24.17;;;;;;;-1.41;100.00;102862.56;5096401;28;20626;-80
2023/01/29 03:16:00;;;;;;;31.02;25.08;;;;;;;-1.40;100.00;102858.94;5073246;28;20040;-80
2023/01/29 03:18:30;;;;;;;31.20;24.63;;;;;;;-1.40;100.00;102864.25;5117519;27;20503;-80
2023/01/29 03:21:02;;;;;;;30.83;24.63;;;;;;;-1.43;100.00;102859.13;5097356;28;20312;-80
2023/01/29 03:32:03;;;;;;;29.63;24.67;;;;;;;-1.38;100.00;102847.28;5096762;28;20351;-80
2023/01/29 03:34:34;;;;;;;31.47;25.23;;;;;;;-1.35;100.00;102859.53;5092102;28;20347;-80
2023/01/29 03:37:08;;;;;;;30.37;24.77;;;;;;;-1.33;100.00;102863.00;5091566;28;20277;-80
2023/01/29 03:39:34;;;;;;;30.83;25.52;;;;;;;-1.33;100.00;102854.13;5096458;28;20811;-80
2023/01/29 03:42:21;;;;;;;30.23;24.70;;;;;;;-1.25;100.00;102851.91;5102127;28;20027;-85
2023/01/29 03:45:18;;;;;;;31.50;24.90;;;;;;;-1.22;100.00;102854.44;5103423;28;20300;-86
2023/01/29 03:47:50;;;;;;;30.63;25.70;;;;;;;-1.24;100.00;102849.19;5103015;28;20811;-85
2023/01/29 03:50:34;;;;;;;31.37;25.10;;;;;;;-1.22;100.00;102847.28;5106852;28;20694;-85
2023/01/29 03:53:03;;;;;;;31.90;25.27;;;;;;;-1.23;100.00;102845.56;5102463;28;20390;-86
2023/01/29 03:55:54;;;;;;;30.97;24.67;;;;;;;-1.21;100.00;102842.81;5105274;28;20285;-85
2023/01/29 03:58:37;;;;;;;32.20;26.80;;;;;;;-1.21;100.00;102841.03;5105365;28;20384;-85
2023/01/29 04:01:13;;;;;;;31.87;26.40;;;;;;;-1.19;100.00;102823.19;5108447;28;20289;-85
2023/01/29 04:03:47;;;;;;;31.73;26.27;;;;;;;-1.16;100.00;102823.97;5105012;28;20317;-86
2023/01/29 04:06:23;;;;;;;31.40;25.50;;;;;;;-1.17;100.00;102817.75;5108637;28;20338;-86
2023/01/29 04:09:01;;;;;;;32.57;26.20;;;;;;;-1.15;100.00;102829.19;5100020;28;20943;-85
2023/01/29 04:11:28;;;;;;;33.47;27.30;;;;;;;-1.16;100.00;102824.81;5104978;28;20289;-86
2023/01/29 04:13:55;;;;;;;32.90;26.57;;;;;;;-1.13;100.00;102826.44;5103478;28;20293;-80
2023/01/29 04:16:46;;;;;;;31.37;26.57;;;;;;;-1.09;100.00;102809.34;5094700;28;20281;-80
2023/01/29 04:19:11;;;;;;;33.07;26.53;;;;;;;-1.10;100.00;102811.19;5099397;28;20338;-80
2023/01/29 04:21:37;;;;;;;32.33;26.87;;;;;;;-1.06;100.00;102814.50;5089479;28;21979;-80
2023/01/29 04:24:04;;;;;;;32.53;26.60;;;;;;;-1.05;100.00;102811.78;5095517;28;20020;-80
2023/01/29 04:26:49;;;;;;;32.07;25.90;;;;;;;-1.03;100.00;102812.53;5094225;28;20028;-80
2023/01/29 04:29:29;;;;;;;32.95;27.42;;;;;;;-0.95;100.00;102805.91;5097862;28;20281;-86
2023/01/29 04:32:14;;;;;;;34.60;28.37;;;;;;;-0.88;100.00;102813.47;5104890;28;20053;-86
2023/01/29 04:35:06;;;;;;;34.73;28.57;;;;;;;-0.86;100.00;102811.59;5104908;28;20325;-86
2023/01/29 04:37:39;;;;;;;33.03;27.63;;;;;;;-0.85;100.00;102805.28;5106971;28;20301;-86
2023/01/29 04:40:18;;;;;;;33.67;26.97;;;;;;;-0.88;100.00;102786.84;5099393;28;20292;-85
2023/01/29 04:42:58;;;;;;;35.17;28.17;;;;;;;-0.83;100.00;102794.56;5102489;28;20293;-86
2023/01/29 04:45:45;;;;;;;36.10;30.33;;;;;;;-0.89;100.00;102779.81;5104638;28;20285;-85
2023/01/29 04:48:13;;;;;;;36.10;30.03;;;;;;;-0.89;100.00;102779.81;5100018;28;20295;-86
2023/01/29 04:51:05;;;;;;;37.63;31.00;;;;;;;-0.85;100.00;102767.19;5104614;28;20300;-85
2023/01/29 04:53:43;;;;;;;39.90;31.90;;;;;;;-0.85;100.00;102765.38;5103987;28;20281;-86
2023/01/29 04:56:36;;;;;;;38.60;30.17;;;;;;;-0.85;100.00;102768.03;5100921;28;20290;-85
2023/01/29 04:59:06;;;;;;;36.77;29.47;;;;;;;-0.85;100.00;102761.84;5100156;28;20350;-86
2023/01/29 05:01:34;;;;;;;35.97;29.87;;;;;;;-0.88;100.00;102765.56;5106841;28;20385;-86
2023/01/29 05:04:05;;;;;;;35.53;29.03;;;;;;;-0.84;100.00;102760.91;5123824;28;20281;-86
2023/01/29 05:06:31;;;;;;;36.73;31.03;;;;;;;-0.81;100.00;102750.09;5107242;28;20286;-86
2023/01/29 05:08:59;;;;;;;36.67;30.67;;;;;;;-0.82;100.00;102768.81;5107237;28;20307;-86
2023/01/29 05:11:25;;;;;;;36.47;30.13;;;;;;;-0.85;100.00;102765.38;5106647;28;20285;-85
2023/01/29 05:13:51;;;;;;;35.17;29.27;;;;;;;-0.81;100.00;102770.53;5104413;28;20289;-86
2023/01/29 05:16:40;;;;;;;37.00;30.83;;;;;;;-0.78;100.00;102759.69;5108910;28;20027;-86
2023/01/29 05:19:13;;;;;;;35.33;30.27;;;;;;;-0.77;100.00;102764.94;5108694;28;20052;-85
2023/01/29 05:21:41;;;;;;;36.37;29.93;;;;;;;-0.75;100.00;102763.06;5099925;28;20301;-86
2023/01/29 05:24:15;;;;;;;37.07;30.70;;;;;;;-0.73;100.00;102749.66;5109675;28;20380;-85
2023/01/29 05:29:27;;;;;;;35.23;29.53;;;;;;;-0.67;100.00;102751.94;5106428;28;20031;-85
2023/01/29 05:31:52;;;;;;;35.90;30.60;;;;;;;-0.69;100.00;102732.53;5105541;28;20701;-85
2023/01/29 05:34:18;;;;;;;36.73;30.43;;;;;;;-0.66;100.00;102731.50;5103512;28;20058;-86
2023/01/29 05:36:43;;;;;;;39.27;31.70;;;;;;;-0.66;100.00;102735.00;5111490;28;20032;-86
2023/01/29 05:39:08;;;;;;;37.57;31.70;;;;;;;-0.64;100.00;102729.59;5105920;28;20102;-86
2023/01/29 05:41:34;;;;;;;36.90;32.40;;;;;;;-0.57;100.00;102729.13;5110275;28;20110;-86
2023/01/29 05:43:59;;;;;;;42.07;34.20;;;;;;;-0.52;100.00;102740.38;5103239;28;20035;-86
2023/01/29 05:46:24;;;;;;;40.63;32.87;;;;;;;-0.52;100.00;102742.16;5100923;28;20535;-86
2023/01/29 05:48:53;;;;;;;41.67;34.47;;;;;;;-0.51;100.00;102750.06;5110730;28;20026;-86
2023/01/29 05:51:18;;;;;;;39.20;32.43;;;;;;;-0.45;100.00;102755.97;5105810;28;20100;-86
2023/01/29 05:53:43;;;;;;;38.20;32.77;;;;;;;-0.47;100.00;102757.88;5107347;28;20745;-86
2023/01/29 05:56:09;;;;;;;38.17;32.47;;;;;;;-0.47;100.00;102755.22;5107727;28;20028;-86
2023/01/29 05:58:35;;;;;;;37.20;32.03;;;;;;;-0.43;100.00;102767.41;5106565;28;20125;-86
2023/01/29 06:01:16;;;;;;;39.10;33.03;;;;;;;-0.45;100.00;102761.28;5098879;28;20046;-86
2023/01/29 06:03:42;;;;;;;38.30;32.47;;;;;;;-0.45;100.00;102766.63;5103651;28;20051;-86
2023/01/29 06:06:08;;;;;;;38.00;32.07;;;;;;;-0.45;100.00;102767.50;5106698;28;20317;-86
2023/01/29 06:08:34;;;;;;;38.77;32.70;;;;;;;-0.42;100.00;102763.75;5102840;28;20177;-86
2023/01/29 06:10:59;;;;;;;40.30;34.13;;;;;;;-0.44;100.00;102763.03;5108155;28;20028;-86
2023/01/29 06:13:24;;;;;;;38.93;32.63;;;;;;;-0.40;100.00;102769.88;5106797;28;20089;-86
2023/01/29 06:15:50;;;;;;;38.17;32.77;;;;;;;-0.38;100.00;102778.63;5104284;28;20027;-86
2023/01/29 06:18:15;;;;;;;39.50;33.70;;;;;;;-0.39;100.00;102779.59;5099588;28;20062;-80
2023/01/29 06:20:40;;;;;;;39.80;34.33;;;;;;;-0.36;100.00;102788.22;5085297;28;20051;-80
2023/01/29 06:23:06;;;;;;;38.30;33.03;;;;;;;-0.36;100.00;102787.38;5097916;28;20146;-80
2023/01/29 06:25:31;;;;;;;38.63;33.00;;;;;;;-0.35;100.00;102773.97;5094070;28;20282;-80
2023/01/29 06:27:56;;;;;;;39.37;33.50;;;;;;;-0.35;100.00;102760.66;5097764;28;20032;-80
2023/01/29 06:30:22;;;;;;;38.80;33.70;;;;;;;-0.30;100.00;102748.84;5095760;28;20054;-80
2023/01/29 06:32:47;;;;;;;39.73;33.73;;;;;;;-0.30;100.00;102731.09;5064473;28;20122;-80
2023/01/29 06:35:12;;;;;;;40.03;34.73;;;;;;;-0.25;100.00;102725.47;5096994;28;20030;-80
2023/01/29 06:37:38;;;;;;;40.53;35.63;;;;;;;-0.27;100.00;102722.91;5099113;28;20604;-81
2023/01/29 06:40:04;;;;;;;43.43;36.53;;;;;;;-0.25;100.00;102736.13;5097508;28;20061;-80
2023/01/29 06:42:29;;;;;;;43.17;37.07;;;;;;;-0.28;100.00;102739.81;5097111;28;20101;-80
2023/01/29 06:44:55;;;;;;;39.30;33.70;;;;;;;-0.25;100.00;102747.63;5099300;28;20104;-80
2023/01/29 06:47:21;;;;;;;42.83;36.33;;;;;;;-0.33;100.00;102735.72;5094620;28;20031;-80
2023/01/29 06:49:46;;;;;;;42.13;35.53;;;;;;;-0.36;100.00;102731.44;5093698;28;20348;-80
2023/01/29 06:52:12;;;;;;;45.90;38.07;;;;;;;-0.31;100.00;102742.69;5084882;28;20030;-86
2023/01/29 06:54:37;;;;;;;47.63;39.47;;;;;;;-0.27;100.00;102735.34;5110154;28;20027;-86
2023/01/29 06:57:03;;;;;;;43.40;36.37;;;;;;;-0.29;100.00;102735.44;5099158;28;20088;-86
2023/01/29 06:59:28;;;;;;;45.63;39.40;;;;;;;-0.30;100.00;102732.88;5109626;28;20036;-86
2023/01/29 07:01:53;;;;;;;44.70;38.37;;;;;;;-0.32;100.00;102729.47;5085895;28;20036;-80
2023/01/29 07:04:19;;;;;;;44.87;37.30;;;;;;;-0.26;100.00;102729.94;5080060;28;20044;-80
2023/01/29 07:06:44;;;;;;;44.20;36.40;;;;;;;-0.23;100.00;102729.75;5096233;28;20032;-81
2023/01/29 07:09:13;;;;;;;42.17;36.27;;;;;;;-0.22;100.00;102726.13;5097905;28;20036;-79
2023/01/29 07:11:38;;;;;;;40.60;35.60;;;;;;;-0.19;100.00;102725.94;5097092;28;20028;-80
2023/01/29 07:14:04;;;;;;;42.17;36.20;;;;;;;-0.25;100.00;102736.13;5095093;28;20375;-81
2023/01/29 07:16:30;;;;;;;42.57;37.67;;;;;;;-0.25;100.00;102739.63;5097620;28;20066;-80
2023/01/29 07:18:55;;;;;;;42.20;36.23;;;;;;;-0.20;100.00;102739.38;5078078;28;20376;-80
2023/01/29 07:21:21;;;;;;;42.07;36.23;;;;;;;-0.21;100.00;102738.50;5095031;28;20057;-80
2023/01/29 07:23:46;;;;;;;42.17;36.67;;;;;;;-0.19;100.00;102731.28;5078559;28;20123;-80
2023/01/29 07:26:12;;;;;;;40.50;35.10;;;;;;;-0.22;100.00;102731.47;5096763;28;20402;-80
2023/01/29 07:28:38;;;;;;;41.60;35.17;;;;;;;-0.16;100.00;102746.22;5077231;28;20032;-81
2023/01/29 07:31:04;;;;;;;42.10;36.20;;;;;;;-0.13;100.00;102729.19;5100530;27;20069;-85
2023/01/29 07:33:30;;;;;;;38.83;34.40;;;;;;;-0.10;100.00;102724.50;5105206;28;20480;-86
2023/01/29 07:35:55;;;;;;;40.43;34.47;;;;;;;-0.08;100.00;102722.63;5102584;28;20297;-86
2023/01/29 07:38:21;;;;;;;41.90;35.70;;;;;;;-0.09;100.00;102715.56;5108858;28;20076;-85
2023/01/29 07:40:47;;;;;;;39.47;33.67;;;;;;;-0.04;100.00;102723.25;5108404;28;20035;-86
2023/01/29 07:43:13;;;;;;;40.57;34.73;;;;;;;-0.04;100.00;102733.91;5102171;28;20032;-86
2023/01/29 07:45:39;;;;;;;41.70;36.30;;;;;;;-0.06;100.00;102731.34;5108408;28;20308;-86
2023/01/29 07:48:08;;;;;;;41.80;35.70;;;;;;;-0.07;100.00;102736.78;5097956;28;20144;-80
2023/01/29 07:50:34;;;;;;;40.10;34.13;;;;;;;-0.06;100.00;102733.16;5093071;28;20517;-80
2023/01/29 07:53:00;;;;;;;39.00;33.73;;;;;;;-0.06;100.00;102727.84;5097356;28;20288;-80
2023/01/29 07:55:26;;;;;;;39.13;33.27;;;;;;;-0.10;100.00;102732.50;5096479;28;22191;-80
2023/01/29 07:57:56;;;;;;;38.83;34.03;;;;;;;-0.06;100.00;102731.34;5096101;28;20298;-80
2023/01/29 08:00:23;;;;;;;40.87;34.23;;;;;;;-0.04;100.00;102731.25;5098181;28;20537;-86
2023/01/29 08:02:48;;;;;;;38.13;33.90;;;;;;;-0.05;100.00;102710.91;5108294;28;20328;-85
2023/01/29 08:05:14;;;;;;;37.67;32.97;;;;;;;0.01;100.00;102718.50;5098446;28;20032;-85
2023/01/29 08:07:39;;;;;;;38.10;33.70;;;;;;;-0.02;100.00;102713.38;5105144;28;20108;-86
2023/01/29 08:10:05;;;;;;;38.23;33.87;;;;;;;-0.01;100.00;102710.59;5083253;28;20028;-86
2023/01/29 08:12:30;;;;;;;40.00;33.93;;;;;;;-0.03;100.00;102719.66;5096038;28;20024;-80
2023/01/29 08:14:56;;;;;;;38.20;34.00;;;;;;;0.03;100.00;102726.41;5094296;28;20042;-80
2023/01/29 08:17:21;;;;;;;39.23;32.93;;;;;;;0.05;100.00;102716.50;5095404;28;20027;-80
2023/01/29 08:19:46;;;;;;;37.87;32.83;;;;;;;0.06;100.00;102711.09;5092419;28;20031;-80
2023/01/29 08:22:14;;;;;;;38.73;32.57;;;;;;;0.04;100.00;102710.34;5098301;28;20032;-85
2023/01/29 08:24:39;;;;;;;40.27;33.53;;;;;;;0.05;100.00;102704.03;5108037;28;20030;-86
2023/01/29 08:27:05;;;;;;;40.00;33.20;;;;;;;0.11;100.00;102716.09;5106008;28;20285;-86
2023/01/29 08:29:30;;;;;;;39.00;33.43;;;;;;;0.12;100.00;102697.38;5104752;28;20438;-86
2023/01/29 08:31:55;;;;;;;38.37;31.87;;;;;;;0.11;100.00;102702.78;5104412;28;20789;-86
2023/01/29 08:34:21;;;;;;;40.03;33.50;;;;;;;0.08;100.00;102685.19;5109268;28;20120;-85
2023/01/29 08:36:46;;;;;;;41.07;33.70;;;;;;;0.16;100.00;102682.03;5108558;28;20040;-86
2023/01/29 08:39:12;;;;;;;39.80;34.60;;;;;;;0.11;100.00;102679.66;5093910;28;20078;-86
2023/01/29 08:41:37;;;;;;;39.43;33.20;;;;;;;0.09;100.00;102675.38;5106805;28;21019;-85
2023/01/29 08:44:03;;;;;;;41.50;35.13;;;;;;;0.04;100.00;102673.03;5104664;28;20028;-86
2023/01/29 08:46:29;;;;;;;41.57;34.00;;;;;;;0.04;100.00;102670.34;5104607;28;20016;-85
2023/01/29 08:48:54;;;;;;;38.80;33.83;;;;;;;0.11;100.00;102671.66;5100954;28;20030;-85
2023/01/29 08:51:20;;;;;;;38.40;32.77;;;;;;;0.12;100.00;102675.19;5105581;28;20764;-85
2023/01/29 08:53:46;;;;;;;38.10;32.00;;;;;;;0.09;100.00;102686.88;5109666;28;20023;-85
2023/01/29 08:56:11;;;;;;;40.33;34.00;;;;;;;0.12;100.00;102692.03;5111890;28;20424;-86
2023/01/29 08:58:37;;;;;;;40.17;33.43;;;;;;;0.17;100.00;102689.91;5109185;28;20088;-86
2023/01/29 09:01:11;;;;;;;39.90;32.57;;;;;;;0.24;100.00;102687.72;5110161;28;20070;-86
2023/01/29 09:03:39;;;;;;;35.55;30.42;;;;;;;0.27;100.00;102682.22;5109854;28;20096;-86
2023/01/29 09:06:07;;;;;;;35.27;31.33;;;;;;;0.28;100.00;102683.91;5107274;28;20047;-86
2023/01/29 09:08:32;;;;;;;36.93;31.37;;;;;;;0.21;100.00;102677.25;5112415;28;20289;-85
2023/01/29 09:10:58;;;;;;;37.97;32.47;;;;;;;0.30;100.00;102673.13;5105395;28;20296;-86
2023/01/29 09:13:24;;;;;;;35.57;30.40;;;;;;;0.37;100.00;102666.47;5099840;28;20050;-80
2023/01/29 09:15:50;;;;;;;36.17;30.97;;;;;;;0.33;100.00;102673.78;5081968;28;21146;-80
2023/01/29 09:18:15;;;;;;;35.73;29.27;;;;;;;0.38;100.00;102661.97;5081033;28;20055;-80
2023/01/29 09:20:40;;;;;;;35.17;29.53;;;;;;;0.39;100.00;102664.53;5061808;28;20032;-81
2023/01/29 09:23:08;;;;;;;35.13;30.27;;;;;;;0.44;100.00;102661.59;5098820;28;20551;-80
2023/01/29 09:25:34;;;;;;;34.87;29.93;;;;;;;0.48;100.00;102669.28;5099087;28;20054;-81
2023/01/29 09:27:59;;;;;;;34.40;28.47;;;;;;;0.48;100.00;102660.44;5099271;28;22115;-81
2023/01/29 09:30:25;;;;;;;34.40;29.93;;;;;;;0.49;100.00;102660.31;5088921;28;20024;-86
2023/01/29 09:32:50;;;;;;;32.13;27.07;;;;;;;0.58;100.00;102661.53;5077422;28;20035;-86
2023/01/29 09:35:15;;;;;;;33.37;28.07;;;;;;;0.57;100.00;102669.63;5108497;28;20034;-86
2023/01/29 09:37:41;;;;;;;32.80;27.17;;;;;;;0.61;100.00;102663.13;5086697;28;20066;-80
2023/01/29 09:40:16;;;;;;;32.67;28.03;;;;;;;0.61;100.00;102671.13;5085855;28;20865;-80
2023/01/29 09:42:50;;;;;;;31.53;27.67;;;;;;;0.69;100.00;102668.81;5083220;28;20024;-81
2023/01/29 09:45:23;;;;;;;31.45;27.02;;;;;;;0.71;100.00;102677.59;5097608;28;20296;-81
2023/01/29 09:47:50;;;;;;;31.53;27.00;;;;;;;0.74;100.00;102685.38;5096557;28;20047;-80
2023/01/29 09:50:25;;;;;;;30.70;27.37;;;;;;;0.78;100.00;102673.53;5099583;28;20356;-80
2023/01/29 09:53:02;;;;;;;30.83;26.43;;;;;;;0.83;100.00;102674.09;5098003;28;20385;-80
2023/01/29 09:55:41;;;;;;;32.20;26.90;;;;;;;0.83;100.00;102674.09;5096709;28;20653;-81
2023/01/29 09:58:37;;;;;;;29.17;24.93;;;;;;;0.83;100.00;102665.25;5097763;28;20304;-80
2023/01/29 10:01:17;;;;;;;30.73;26.17;;;;;;;0.91;100.00;102670.91;5099032;28;20377;-81
2023/01/29 10:03:55;;;;;;;29.87;25.60;;;;;;;0.94;100.00;102673.38;5098209;28;20421;-80
2023/01/29 10:06:39;;;;;;;29.07;24.33;;;;;;;0.95;100.00;102668.88;5099085;28;20292;-81
2023/01/29 10:09:42;;;;;;;28.33;23.95;;;;;;;1.02;99.75;102678.19;5095689;28;20296;-80
2023/01/29 10:12:27;;;;;;;28.97;24.90;;;;;;;1.01;98.94;102663.97;5103547;28;20080;-86
2023/01/29 10:14:59;;;;;;;29.63;23.87;;;;;;;1.02;98.29;102659.53;5111247;28;20023;-86
2023/01/29 10:17:41;;;;;;;27.87;23.50;;;;;;;1.07;97.85;102672.53;5106825;28;20289;-86
2023/01/29 10:20:19;;;;;;;28.13;23.20;;;;;;;1.10;97.76;102666.97;5103423;28;20793;-86
2023/01/29 10:22:53;;;;;;;29.33;22.83;;;;;;;1.12;97.61;102665.06;5100679;28;20385;-86
2023/01/29 10:25:21;;;;;;;28.77;23.48;;;;;;;1.06;97.38;102660.16;5108924;28;20024;-86
2023/01/29 10:27:57;;;;;;;28.07;23.20;;;;;;;1.14;98.04;102664.03;5107342;28;20119;-81
2023/01/29 10:30:27;;;;;;;26.03;22.17;;;;;;;1.14;97.90;102668.47;5096386;28;20041;-81
2023/01/29 10:32:54;;;;;;;28.10;23.03;;;;;;;1.13;98.13;102667.63;5099287;28;20048;-81
2023/01/29 10:35:42;;;;;;;27.43;22.73;;;;;;;1.26;97.78;102664.97;5099659;28;20027;-81
2023/01/29 10:38:22;;;;;;;26.80;23.17;;;;;;;1.21;97.13;102671.59;5096857;28;20020;-80
2023/01/29 10:41:09;;;;;;;27.77;22.67;;;;;;;1.22;97.41;102671.47;5099709;28;20285;-80
2023/01/29 10:44:05;;;;;;;27.77;22.83;;;;;;;1.26;97.34;102662.28;5093879;28;20472;-81
2023/01/29 10:46:49;;;;;;;26.40;22.07;;;;;;;1.29;97.11;102654.09;5099264;28;20292;-85
2023/01/29 10:49:36;;;;;;;28.48;22.05;;;;;;;1.30;97.28;102654.94;5097346;28;20290;-81
2023/01/29 10:52:16;;;;;;;26.50;21.63;;;;;;;1.37;96.78;102658.88;5100345;28;20122;-82
2023/01/29 10:54:59;;;;;;;26.67;21.93;;;;;;;1.38;96.74;102655.25;5104109;28;20015;-86
2023/01/29 10:57:55;;;;;;;26.13;20.83;;;;;;;1.46;96.22;102644.88;5110196;28;20491;-87
2023/01/29 11:00:24;;;;;;;24.37;20.53;;;;;;;1.50;95.91;102640.19;5089505;28;20487;-86
2023/01/29 11:02:51;;;;;;;23.63;19.17;;;;;;;1.55;95.34;102629.16;5103663;28;20289;-86
2023/01/29 11:05:16;;;;;;;25.13;20.50;;;;;;;1.58;94.92;102626.28;5109379;28;20027;-86
2023/01/29 11:07:41;;;;;;;23.90;19.47;;;;;;;1.58;95.07;102620.94;5098174;28;20459;-86
2023/01/29 11:10:12;;;;;;;26.70;20.83;;;;;;;1.58;94.91;102620.94;5086863;28;20026;-86
2023/01/29 11:12:38;;;;;;;23.87;19.10;;;;;;;1.67;94.57;102612.28;5105133;28;20028;-86
2023/01/29 11:15:21;;;;;;;25.20;20.00;;;;;;;1.72;94.09;102609.28;5100122;28;20035;-86
2023/01/29 11:18:14;;;;;;;24.30;19.37;;;;;;;1.76;93.70;102595.56;5102477;28;20031;-86
2023/01/29 11:20:41;;;;;;;23.77;19.40;;;;;;;1.83;93.62;102583.47;5109616;28;20084;-86
2023/01/29 11:23:26;;;;;;;23.57;18.97;;;;;;;1.88;93.86;102582.28;5109151;28;20035;-86
2023/01/29 11:25:54;;;;;;;23.10;19.40;;;;;;;1.83;92.58;102575.44;5106558;28;20023;-85
2023/01/29 11:28:42;;;;;;;24.07;19.87;;;;;;;1.84;92.32;102566.47;5105464;28;20107;-85
2023/01/29 11:31:17;;;;;;;24.33;19.40;;;;;;;1.91;92.84;102566.88;5107763;28;20027;-86
2023/01/29 11:33:45;;;;;;;22.73;18.93;;;;;;;1.98;91.94;102565.44;5101132;28;20077;-86
2023/01/29 11:36:40;;;;;;;24.37;19.70;;;;;;;2.07;92.74;102568.41;5092818;28;20374;-86
2023/01/29 11:39:20;;;;;;;22.80;18.98;;;;;;;2.08;91.94;102562.97;5083313;28;20131;-86
2023/01/29 11:41:57;;;;;;;22.50;17.60;;;;;;;2.04;92.24;102556.16;5094722;28;20099;-85
2023/01/29 11:44:35;;;;;;;23.03;18.57;;;;;;;2.10;92.23;102550.34;5096520;28;20393;-85
2023/01/29 11:47:10;;;;;;;24.47;19.67;;;;;;;2.07;92.14;102544.34;5097689;28;20023;-85
2023/01/29 11:49:37;;;;;;;26.83;20.75;;;;;;;2.10;91.45;102539.63;5093116;28;20100;-86
2023/01/29 11:52:06;;;;;;;24.03;19.63;;;;;;;2.08;91.68;102536.25;5097621;28;20016;-85
2023/01/29 11:54:43;;;;;;;25.13;19.13;;;;;;;2.03;91.38;102523.19;5117623;27;20110;-86